createdAt,value
2023-04-30T00:00:47.668Z,36.69
2023-04-30T00:03:14.402Z,36.72
2023-04-30T00:05:41.154Z,36.58
2023-04-30T00:08:07.466Z,36.61
2023-04-30T00:10:33.955Z,36.75
2023-04-30T00:13:00.337Z,36.78
2023-04-30T00:15:26.861Z,36.47
2023-04-30T00:17:53.378Z,36.46
2023-04-30T00:20:19.906Z,36.43
2023-04-30T00:22:46.263Z,36.21
2023-04-30T00:25:12.702Z,36.05
2023-04-30T00:27:40.856Z,36.20
2023-04-30T00:30:07.730Z,36.16
2023-04-30T00:32:34.075Z,36.13
2023-04-30T00:35:00.539Z,35.77
2023-04-30T00:37:26.965Z,35.82
2023-04-30T00:39:53.500Z,35.97
2023-04-30T00:42:19.961Z,36.03
2023-04-30T00:44:46.383Z,35.98
2023-04-30T00:47:12.819Z,36.02
2023-04-30T00:49:39.225Z,35.88
2023-04-30T00:52:05.915Z,35.96
2023-04-30T00:54:32.471Z,35.84
2023-04-30T00:56:58.932Z,35.99
2023-04-30T00:59:25.377Z,35.89
2023-04-30T01:01:52.266Z,35.82
2023-04-30T01:04:18.832Z,35.91
2023-04-30T01:06:46.625Z,35.64
2023-04-30T01:09:13.051Z,35.82
2023-04-30T01:11:42.278Z,35.88
2023-04-30T01:14:12.257Z,35.56
2023-04-30T01:17:01.853Z,35.75
2023-04-30T01:19:28.153Z,35.58
2023-04-30T01:21:55.921Z,35.69
2023-04-30T01:24:45.860Z,35.46
2023-04-30T01:27:21.651Z,35.62
2023-04-30T01:29:48.221Z,35.51
2023-04-30T01:32:14.526Z,35.63
2023-04-30T01:34:40.869Z,35.63
2023-04-30T01:37:18.897Z,35.59
2023-04-30T01:39:45.439Z,35.47
2023-04-30T01:42:16.457Z,35.44
2023-04-30T01:44:42.819Z,35.42
2023-04-30T01:47:18.170Z,35.32
2023-04-30T01:49:53.017Z,35.37
2023-04-30T01:52:22.917Z,35.38
2023-04-30T01:54:52.831Z,35.47
2023-04-30T01:57:23.846Z,35.39
2023-04-30T01:59:50.920Z,35.27
2023-04-30T02:02:17.417Z,35.38
2023-04-30T02:04:43.801Z,35.68
2023-04-30T02:07:10.125Z,36.23
2023-04-30T02:09:36.503Z,36.30
2023-04-30T02:12:03.817Z,35.90
2023-04-30T02:14:31.246Z,36.08
2023-04-30T02:16:57.609Z,35.97
2023-04-30T02:19:24.002Z,35.79
2023-04-30T02:21:50.411Z,35.75
2023-04-30T02:24:16.767Z,35.72
2023-04-30T02:26:43.090Z,35.64
2023-04-30T02:29:09.438Z,35.65
2023-04-30T02:31:35.852Z,35.70
2023-04-30T02:34:02.467Z,35.54
2023-04-30T02:36:29.075Z,35.60
2023-04-30T02:38:55.476Z,35.49
2023-04-30T02:41:22.066Z,35.43
2023-04-30T02:43:48.484Z,35.46
2023-04-30T02:46:14.959Z,35.37
2023-04-30T02:48:41.364Z,35.34
2023-04-30T02:51:07.715Z,35.19
2023-04-30T02:53:34.105Z,35.26
2023-04-30T02:56:00.587Z,35.21
2023-04-30T02:58:26.982Z,35.21
2023-04-30T03:00:53.505Z,35.37
2023-04-30T03:03:20.287Z,35.36
2023-04-30T03:05:46.754Z,35.12
2023-04-30T03:08:13.126Z,35.21
2023-04-30T03:10:39.547Z,35.05
2023-04-30T03:13:05.978Z,35.15
2023-04-30T03:15:32.938Z,35.05
2023-04-30T03:17:59.340Z,34.87
2023-04-30T03:20:25.806Z,35.05
2023-04-30T03:22:52.135Z,35.10
2023-04-30T03:25:18.531Z,34.78
2023-04-30T03:27:44.920Z,34.81
2023-04-30T03:30:11.390Z,34.80
2023-04-30T03:32:38.899Z,34.90
2023-04-30T03:35:05.935Z,34.79
2023-04-30T03:37:32.272Z,34.85
2023-04-30T03:39:58.608Z,34.77
2023-04-30T03:42:25.147Z,34.83
2023-04-30T03:44:51.585Z,34.80
2023-04-30T03:47:17.965Z,34.93
2023-04-30T03:49:44.328Z,34.77
2023-04-30T03:52:11.227Z,34.70
2023-04-30T03:54:37.667Z,34.62
2023-04-30T03:57:04.446Z,34.64
2023-04-30T03:59:31.696Z,34.83
2023-04-30T04:01:58.077Z,34.77
2023-04-30T04:04:24.539Z,34.75
2023-04-30T04:06:51.011Z,34.65
2023-04-30T04:09:17.337Z,34.66
2023-04-30T04:11:43.713Z,34.55
2023-04-30T04:14:10.150Z,34.85
2023-04-30T04:16:37.117Z,34.80
2023-04-30T04:19:04.532Z,34.79
2023-04-30T04:21:31.594Z,34.75
2023-04-30T04:23:58.017Z,34.71
2023-04-30T04:26:25.761Z,34.74
2023-04-30T04:28:52.183Z,34.66
2023-04-30T04:31:18.515Z,34.79
2023-04-30T04:33:44.963Z,34.64
2023-04-30T04:36:11.350Z,34.64
2023-04-30T04:38:37.750Z,34.77
2023-04-30T04:41:04.492Z,34.76
2023-04-30T04:43:31.091Z,34.71
2023-04-30T04:45:57.494Z,34.71
2023-04-30T04:48:24.008Z,34.76
2023-04-30T04:50:50.578Z,34.73
2023-04-30T04:53:16.972Z,34.72
2023-04-30T04:55:43.321Z,34.80
2023-04-30T04:58:09.700Z,34.64
2023-04-30T05:00:36.130Z,34.83
2023-04-30T05:03:02.508Z,34.76
2023-04-30T05:05:29.002Z,34.81
2023-04-30T05:07:55.346Z,34.67
2023-04-30T05:10:21.983Z,34.79
2023-04-30T05:12:48.378Z,34.80
2023-04-30T05:15:14.787Z,34.88
2023-04-30T05:17:42.101Z,34.85
2023-04-30T05:20:09.291Z,34.84
2023-04-30T05:22:35.756Z,34.96
2023-04-30T05:25:02.140Z,34.70
2023-04-30T05:27:28.799Z,34.90
2023-04-30T05:29:55.424Z,34.78
2023-04-30T05:32:24.844Z,34.70
2023-04-30T05:34:51.567Z,34.78
2023-04-30T05:37:19.481Z,34.97
2023-04-30T05:39:46.207Z,34.96
2023-04-30T05:42:12.573Z,34.82
2023-04-30T05:44:40.263Z,34.77
2023-04-30T05:47:06.785Z,34.87
2023-04-30T05:49:35.172Z,35.06
2023-04-30T05:52:03.604Z,34.81
2023-04-30T05:54:30.519Z,35.04
2023-04-30T05:56:57.252Z,34.96
2023-04-30T05:59:23.761Z,35.01
2023-04-30T06:01:50.277Z,35.04
2023-04-30T06:04:17.580Z,34.89
2023-04-30T06:06:44.189Z,35.01
2023-04-30T06:09:10.732Z,35.06
2023-04-30T06:11:42.291Z,35.03
2023-04-30T06:14:10.170Z,35.10
2023-04-30T06:16:36.691Z,35.03
2023-04-30T06:19:03.213Z,35.05
2023-04-30T06:21:29.663Z,35.00
2023-04-30T06:23:56.270Z,35.07
2023-04-30T06:26:22.682Z,34.92
2023-04-30T06:28:49.110Z,34.96
2023-04-30T06:31:15.666Z,34.98
2023-04-30T06:33:42.030Z,35.13
2023-04-30T06:36:08.483Z,35.20
2023-04-30T06:38:34.948Z,35.42
2023-04-30T06:41:01.318Z,35.21
2023-04-30T06:43:27.673Z,35.40
2023-04-30T06:45:54.102Z,35.38
2023-04-30T06:48:20.437Z,35.40
2023-04-30T06:50:46.841Z,35.52
2023-04-30T06:53:13.640Z,35.61
2023-04-30T06:55:41.092Z,35.59
2023-04-30T07:00:34.733Z,35.59
2023-04-30T07:03:03.617Z,35.33
2023-04-30T07:05:30.655Z,35.15
2023-04-30T07:07:57.476Z,35.45
2023-04-30T07:10:23.897Z,35.44
2023-04-30T07:12:50.269Z,35.48
2023-04-30T07:15:16.642Z,35.40
2023-04-30T07:17:43.130Z,35.40
2023-04-30T07:20:09.864Z,35.35
2023-04-30T07:22:36.365Z,35.17
2023-04-30T07:25:02.753Z,35.19
2023-04-30T07:27:29.113Z,35.14
2023-04-30T07:29:56.031Z,35.17
2023-04-30T07:32:22.924Z,34.80
2023-04-30T07:34:49.374Z,34.92
2023-04-30T07:37:15.773Z,35.00
2023-04-30T07:39:42.189Z,35.20
2023-04-30T07:42:08.750Z,35.06
2023-04-30T07:44:35.172Z,35.29
2023-04-30T07:47:01.549Z,35.14
2023-04-30T07:49:28.246Z,34.98
2023-04-30T07:51:54.876Z,35.12
2023-04-30T07:54:21.266Z,34.71
2023-04-30T07:56:49.016Z,35.08
2023-04-30T07:59:15.608Z,34.74
2023-04-30T08:01:42.362Z,34.93
2023-04-30T08:04:09.556Z,35.02
2023-04-30T08:06:36.038Z,35.01
2023-04-30T08:09:02.525Z,35.04
2023-04-30T08:11:28.905Z,34.79
2023-04-30T08:13:55.706Z,35.08
2023-04-30T08:16:22.102Z,35.13
2023-04-30T08:18:49.663Z,35.17
2023-04-30T08:21:16.453Z,34.97
2023-04-30T08:23:42.876Z,35.38
2023-04-30T08:26:09.294Z,35.60
2023-04-30T08:28:36.311Z,35.47
2023-04-30T08:31:02.718Z,35.65
2023-04-30T08:33:29.068Z,35.66
2023-04-30T08:35:55.423Z,35.90
2023-04-30T08:38:21.896Z,36.14
2023-04-30T08:40:55.489Z,35.86
2023-04-30T08:43:22.512Z,35.94
2023-04-30T08:45:50.983Z,36.09
2023-04-30T08:48:19.108Z,36.30
2023-04-30T08:50:45.875Z,36.06
2023-04-30T08:53:13.227Z,36.23
2023-04-30T08:55:40.123Z,36.16
2023-04-30T08:58:07.001Z,36.10
2023-04-30T09:00:34.357Z,36.25
2023-04-30T09:03:01.364Z,36.41
2023-04-30T09:05:27.822Z,36.55
2023-04-30T09:08:02.996Z,36.48
2023-04-30T09:10:32.424Z,36.36
2023-04-30T09:13:00.136Z,36.49
2023-04-30T09:15:26.613Z,36.37
2023-04-30T09:18:12.441Z,36.35
2023-04-30T09:20:53.553Z,36.40
2023-04-30T09:23:19.985Z,36.44
2023-04-30T09:25:46.494Z,36.44
2023-04-30T09:28:13.618Z,36.70
2023-04-30T09:30:40.851Z,36.61
2023-04-30T09:33:09.908Z,36.32
2023-04-30T09:35:42.878Z,36.60
2023-04-30T09:38:25.752Z,36.40
2023-04-30T09:40:52.144Z,36.60
2023-04-30T09:43:18.868Z,37.01
2023-04-30T09:45:51.305Z,36.80
2023-04-30T09:48:30.142Z,37.12
2023-04-30T09:50:56.765Z,37.05
2023-04-30T09:53:25.082Z,36.81
2023-04-30T09:55:52.128Z,35.79
2023-04-30T09:58:19.166Z,35.63
2023-04-30T10:00:46.380Z,35.60
2023-04-30T10:03:14.220Z,35.13
2023-04-30T10:05:40.740Z,35.04
2023-04-30T10:08:08.474Z,34.56
2023-04-30T10:10:35.535Z,34.11
2023-04-30T10:13:05.863Z,33.95
2023-04-30T10:15:40.043Z,34.07
2023-04-30T10:18:09.130Z,34.26
2023-04-30T10:20:39.296Z,34.61
2023-04-30T10:23:07.179Z,35.00
2023-04-30T10:25:34.008Z,34.88
2023-04-30T10:28:03.273Z,35.08
2023-04-30T10:30:31.939Z,35.22
2023-04-30T10:33:01.314Z,35.23
2023-04-30T10:35:30.590Z,35.12
2023-04-30T10:38:03.963Z,35.37
2023-04-30T10:40:35.443Z,34.99
2023-04-30T10:43:01.845Z,35.33
2023-04-30T10:45:34.804Z,35.06
2023-04-30T10:48:02.962Z,35.11
2023-04-30T10:50:32.293Z,35.39
2023-04-30T10:53:05.485Z,35.31
2023-04-30T10:55:32.158Z,35.23
2023-04-30T10:57:58.760Z,35.27
2023-04-30T11:00:26.515Z,35.24
2023-04-30T11:02:57.305Z,35.28
2023-04-30T11:05:34.541Z,35.05
2023-04-30T11:08:01.351Z,35.06
2023-04-30T11:10:31.862Z,34.99
2023-04-30T11:12:59.405Z,35.16
2023-04-30T11:15:28.088Z,35.04
2023-04-30T11:18:01.075Z,35.09
2023-04-30T11:20:28.083Z,35.14
2023-04-30T11:23:21.725Z,35.21
2023-04-30T11:25:54.180Z,35.33
2023-04-30T11:28:24.588Z,35.17
2023-04-30T11:30:55.419Z,35.30
2023-04-30T11:33:22.703Z,35.07
2023-04-30T11:35:52.920Z,35.18
2023-04-30T11:38:26.354Z,35.06
2023-04-30T11:40:54.108Z,35.27
2023-04-30T11:43:27.315Z,35.12
2023-04-30T11:45:59.663Z,35.30
2023-04-30T11:48:30.460Z,35.18
2023-04-30T11:50:56.870Z,35.17
2023-04-30T11:53:29.517Z,35.29
2023-04-30T11:55:55.945Z,35.17
2023-04-30T11:58:23.132Z,34.97
2023-04-30T12:00:52.111Z,34.79
2023-04-30T12:03:18.715Z,34.76
2023-04-30T12:05:46.528Z,34.91
2023-04-30T12:08:13.085Z,34.81
2023-04-30T12:10:39.416Z,35.08
2023-04-30T12:13:05.841Z,34.71
2023-04-30T12:15:34.339Z,35.18
2023-04-30T12:18:10.954Z,34.95
2023-04-30T12:20:37.979Z,35.36
2023-04-30T12:23:04.563Z,35.53
2023-04-30T12:25:31.159Z,35.61
2023-04-30T12:27:59.121Z,35.61
2023-04-30T12:30:29.153Z,34.77
2023-04-30T12:32:57.754Z,34.21
2023-04-30T12:35:24.880Z,34.94
2023-04-30T12:37:52.521Z,35.18
2023-04-30T12:40:26.847Z,35.29
2023-04-30T12:43:00.219Z,35.61
2023-04-30T12:45:43.244Z,35.83
2023-04-30T12:48:09.788Z,35.37
2023-04-30T12:50:36.419Z,35.62
2023-04-30T12:53:03.041Z,35.55
2023-04-30T12:55:31.111Z,35.66
2023-04-30T12:58:04.902Z,35.63
2023-04-30T13:00:42.900Z,35.76
2023-04-30T13:03:09.666Z,35.80
2023-04-30T13:05:36.112Z,35.94
2023-04-30T13:08:03.485Z,35.78
2023-04-30T13:10:30.045Z,35.68
2023-04-30T13:12:56.456Z,35.96
2023-04-30T13:15:22.836Z,35.79
2023-04-30T13:17:49.202Z,36.14
2023-04-30T13:20:16.265Z,35.98
2023-04-30T13:22:42.706Z,35.86
2023-04-30T13:25:09.360Z,35.52
2023-04-30T13:27:35.953Z,35.62
2023-04-30T13:30:02.546Z,35.62
2023-04-30T13:32:29.140Z,35.46
2023-04-30T13:34:56.636Z,35.50
2023-04-30T13:37:23.053Z,35.36
2023-04-30T13:39:49.470Z,35.63
2023-04-30T13:42:15.964Z,35.34
2023-04-30T13:44:42.424Z,35.26
2023-04-30T13:47:10.198Z,35.50
2023-04-30T13:49:36.778Z,35.51
2023-04-30T13:52:06.361Z,35.39
2023-04-30T13:54:33.084Z,35.51
2023-04-30T13:56:59.963Z,35.53
2023-04-30T13:59:26.476Z,35.67
2023-04-30T14:01:52.864Z,35.56
2023-04-30T14:04:19.663Z,35.59
2023-04-30T14:06:47.520Z,35.58
2023-04-30T14:09:13.981Z,35.45
2023-04-30T14:11:41.108Z,35.80
2023-04-30T14:14:08.030Z,35.55
2023-04-30T14:16:35.056Z,35.59
2023-04-30T14:19:01.531Z,35.69
2023-04-30T14:21:28.622Z,35.57
2023-04-30T14:23:55.688Z,35.50
2023-04-30T14:26:22.070Z,35.40
2023-04-30T14:28:48.464Z,35.29
2023-04-30T14:31:14.911Z,35.46
2023-04-30T14:33:41.352Z,35.37
2023-04-30T14:36:08.152Z,34.95
2023-04-30T14:38:34.466Z,35.04
2023-04-30T14:41:00.906Z,35.13
2023-04-30T14:43:27.374Z,34.72
2023-04-30T14:45:54.090Z,34.33
2023-04-30T14:48:20.613Z,34.86
2023-04-30T14:50:47.003Z,34.60
2023-04-30T14:53:14.196Z,34.85
2023-04-30T14:55:40.732Z,35.27
2023-04-30T14:58:07.132Z,35.43
2023-04-30T15:00:33.565Z,35.29
2023-04-30T15:03:00.167Z,35.25
2023-04-30T15:05:26.709Z,34.81
2023-04-30T15:07:53.087Z,34.96
2023-04-30T15:10:19.626Z,34.89
2023-04-30T15:12:45.989Z,34.86
2023-04-30T15:15:12.879Z,34.54
2023-04-30T15:17:39.395Z,34.67
2023-04-30T15:20:06.538Z,34.54
2023-04-30T15:22:33.544Z,34.63
2023-04-30T15:25:00.196Z,34.52
2023-04-30T15:27:30.802Z,34.66
2023-04-30T15:29:58.584Z,34.59
2023-04-30T15:32:24.997Z,34.91
2023-04-30T15:34:51.464Z,35.02
2023-04-30T15:37:17.831Z,34.97
2023-04-30T15:39:44.222Z,34.60
2023-04-30T15:42:10.685Z,34.36
2023-04-30T15:44:37.009Z,34.58
2023-04-30T15:47:03.686Z,34.56
2023-04-30T15:49:30.141Z,34.59
2023-04-30T15:51:56.536Z,34.50
2023-04-30T15:54:23.666Z,34.76
2023-04-30T15:56:51.444Z,34.66
2023-04-30T15:59:19.595Z,34.65
2023-04-30T16:01:46.339Z,34.49
2023-04-30T16:04:13.053Z,34.42
2023-04-30T16:06:39.551Z,34.48
2023-04-30T16:09:06.916Z,34.65
2023-04-30T16:11:33.892Z,34.60
2023-04-30T16:14:00.218Z,34.54
2023-04-30T16:16:28.112Z,34.77
2023-04-30T16:18:54.703Z,34.60
2023-04-30T16:21:21.437Z,34.50
2023-04-30T16:23:48.424Z,34.44
2023-04-30T16:26:15.092Z,34.51
2023-04-30T16:28:41.496Z,34.43
2023-04-30T16:31:07.868Z,34.65
2023-04-30T16:33:34.204Z,34.44
2023-04-30T16:36:00.822Z,34.82
2023-04-30T16:38:27.235Z,34.79
2023-04-30T16:40:53.899Z,34.48
2023-04-30T16:43:20.274Z,34.73
2023-04-30T16:45:46.630Z,34.57
2023-04-30T16:48:13.135Z,34.42
2023-04-30T16:50:39.679Z,34.43
2023-04-30T16:53:06.342Z,34.58
2023-04-30T16:55:33.283Z,34.62
2023-04-30T16:57:59.954Z,34.67
2023-04-30T17:00:26.480Z,34.68
2023-04-30T17:02:53.397Z,34.71
2023-04-30T17:05:20.340Z,34.74
2023-04-30T17:07:46.825Z,34.88
2023-04-30T17:10:13.708Z,34.82
2023-04-30T17:12:40.158Z,34.53
2023-04-30T17:15:07.073Z,34.58
2023-04-30T17:17:33.397Z,34.70
2023-04-30T17:20:00.417Z,34.71
2023-04-30T17:22:26.908Z,34.85
2023-04-30T17:24:53.250Z,34.62
2023-04-30T17:27:19.647Z,34.89
2023-04-30T17:29:45.971Z,35.68
2023-04-30T17:32:12.575Z,36.00
2023-04-30T17:34:38.961Z,36.59
2023-04-30T17:37:05.792Z,36.70
2023-04-30T17:39:35.320Z,36.47
2023-04-30T17:42:02.662Z,36.90
2023-04-30T17:44:31.458Z,36.92
2023-04-30T17:46:57.916Z,37.33
2023-04-30T17:49:25.783Z,37.23
2023-04-30T17:51:52.818Z,37.16
2023-04-30T17:54:19.260Z,37.06
2023-04-30T17:56:45.684Z,36.92
2023-04-30T17:59:12.538Z,36.73
2023-04-30T18:01:38.901Z,36.47
2023-04-30T18:04:07.175Z,36.11
2023-04-30T18:06:33.779Z,36.07
2023-04-30T18:09:01.465Z,35.72
2023-04-30T18:13:54.074Z,35.91
2023-04-30T18:16:20.659Z,35.71
2023-04-30T18:18:47.087Z,35.46
2023-04-30T18:21:14.707Z,35.36
2023-04-30T18:23:41.210Z,35.18
2023-04-30T18:26:07.633Z,35.35
2023-04-30T18:28:34.133Z,35.02
2023-04-30T18:31:00.568Z,34.99
2023-04-30T18:33:27.197Z,34.94
2023-04-30T18:35:53.802Z,34.99
2023-04-30T18:38:20.664Z,34.74
2023-04-30T18:40:47.046Z,34.80
2023-04-30T18:43:14.408Z,34.78
2023-04-30T18:45:41.135Z,34.75
2023-04-30T18:48:07.912Z,34.92
2023-04-30T18:50:34.451Z,34.66
2023-04-30T18:53:00.812Z,34.90
2023-04-30T18:55:27.191Z,34.74
2023-04-30T18:57:56.332Z,34.57
2023-04-30T19:00:22.840Z,34.44
2023-04-30T19:02:49.219Z,34.44
2023-04-30T19:05:15.710Z,34.63
2023-04-30T19:07:42.318Z,34.55
2023-04-30T19:10:08.930Z,34.56
2023-04-30T19:12:35.748Z,34.19
2023-04-30T19:15:02.477Z,34.22
2023-04-30T19:17:28.976Z,34.51
2023-04-30T19:20:00.004Z,34.21
2023-04-30T19:22:26.441Z,34.42
2023-04-30T19:24:52.868Z,34.19
2023-04-30T19:27:19.352Z,34.33
2023-04-30T19:29:46.218Z,34.22
2023-04-30T19:32:12.634Z,34.24
2023-04-30T19:34:39.106Z,34.03
2023-04-30T19:37:05.535Z,34.19
2023-04-30T19:39:33.875Z,33.99
2023-04-30T19:42:00.284Z,33.96
2023-04-30T19:44:29.177Z,34.06
2023-04-30T19:46:56.274Z,34.04
2023-04-30T19:49:26.070Z,33.89
2023-04-30T19:51:53.327Z,33.91
2023-04-30T19:54:19.810Z,33.72
2023-04-30T19:56:46.460Z,33.68
2023-04-30T19:59:13.276Z,33.93
2023-04-30T20:01:40.101Z,33.63
2023-04-30T20:04:07.023Z,33.68
2023-04-30T20:06:33.698Z,33.64
2023-04-30T20:09:00.465Z,33.57
2023-04-30T20:11:26.877Z,33.58
2023-04-30T20:13:56.400Z,33.62
2023-04-30T20:16:22.983Z,33.71
2023-04-30T20:18:49.447Z,33.55
2023-04-30T20:21:17.582Z,33.74
2023-04-30T20:23:45.125Z,33.77
2023-04-30T20:26:11.536Z,33.54
2023-04-30T20:28:38.491Z,33.69
2023-04-30T20:31:06.814Z,33.61
2023-04-30T20:33:33.308Z,33.85
2023-04-30T20:36:00.258Z,33.73
2023-04-30T20:38:26.774Z,33.70
2023-04-30T20:40:53.136Z,33.51
2023-04-30T20:43:19.957Z,33.60
2023-04-30T20:45:46.623Z,33.46
2023-04-30T20:48:13.082Z,33.47
2023-04-30T20:50:40.115Z,33.58
2023-04-30T20:53:07.967Z,33.39
2023-04-30T20:55:35.428Z,33.53
2023-04-30T20:58:02.915Z,33.45
2023-04-30T21:00:29.292Z,33.41
2023-04-30T21:02:55.815Z,33.51
2023-04-30T21:05:22.344Z,33.29
2023-04-30T21:07:48.721Z,33.34
2023-04-30T21:10:15.151Z,33.34
2023-04-30T21:12:41.926Z,33.51
2023-04-30T21:15:09.220Z,33.38
2023-04-30T21:17:35.779Z,33.43
2023-04-30T21:20:02.593Z,33.27
2023-04-30T21:22:28.993Z,33.38
2023-04-30T21:24:55.358Z,33.34
2023-04-30T21:27:21.790Z,33.48
2023-04-30T21:29:48.434Z,33.31
2023-04-30T21:32:14.989Z,33.28
2023-04-30T21:34:41.363Z,33.27
2023-04-30T21:37:07.746Z,33.34
2023-04-30T21:39:34.168Z,33.31
2023-04-30T21:42:00.599Z,33.22
2023-04-30T21:44:27.175Z,33.21
2023-04-30T21:46:53.597Z,33.26
2023-04-30T21:49:20.059Z,33.27
2023-04-30T21:51:46.431Z,33.16
2023-04-30T21:54:13.166Z,33.36
2023-04-30T21:56:40.449Z,33.05
2023-04-30T21:59:06.858Z,32.98
2023-04-30T22:01:33.176Z,33.02
2023-04-30T22:03:59.797Z,32.94
2023-04-30T22:06:26.251Z,33.08
2023-04-30T22:08:52.636Z,33.15
2023-04-30T22:11:19.102Z,32.98
2023-04-30T22:13:45.431Z,33.01
2023-04-30T22:16:12.294Z,33.05
2023-04-30T22:18:39.715Z,33.16
2023-04-30T22:21:06.128Z,33.17
2023-04-30T22:23:32.594Z,33.12
2023-04-30T22:25:59.032Z,32.96
2023-04-30T22:28:25.404Z,33.00
2023-04-30T22:30:57.607Z,33.04
2023-04-30T22:33:24.860Z,33.12
2023-04-30T22:35:51.728Z,33.14
2023-04-30T22:38:18.353Z,33.15
2023-04-30T22:40:45.242Z,33.00
2023-04-30T22:43:11.683Z,33.07
2023-04-30T22:45:40.450Z,33.05
2023-04-30T22:48:07.911Z,33.06
2023-04-30T22:50:34.364Z,33.44
2023-04-30T22:53:01.258Z,33.73
2023-04-30T22:55:27.746Z,33.29
2023-04-30T22:57:54.133Z,34.09
2023-04-30T23:00:21.126Z,34.87
2023-04-30T23:02:47.920Z,35.00
2023-04-30T23:05:14.423Z,34.95
2023-04-30T23:07:41.128Z,35.08
2023-04-30T23:10:07.628Z,34.82
2023-04-30T23:12:35.585Z,34.97
2023-04-30T23:15:02.078Z,34.94
2023-04-30T23:17:28.886Z,34.77
2023-04-30T23:19:55.588Z,34.62
2023-04-30T23:22:22.350Z,34.64
2023-04-30T23:24:48.733Z,34.52
2023-04-30T23:27:15.175Z,34.53
2023-04-30T23:29:43.036Z,34.67
2023-04-30T23:32:09.473Z,34.54
2023-04-30T23:34:36.261Z,34.40
2023-04-30T23:37:02.995Z,34.64
2023-04-30T23:39:29.386Z,34.49
2023-04-30T23:41:56.333Z,34.50
2023-04-30T23:44:22.893Z,34.57
2023-04-30T23:46:50.760Z,34.38
2023-04-30T23:49:17.953Z,34.47
2023-04-30T23:51:45.287Z,34.34
2023-04-30T23:54:12.041Z,34.30
2023-04-30T23:56:38.466Z,34.34
2023-04-30T23:59:04.841Z,34.17
